LESO Airport Information

Runway Information
Runway 04 Length 4780 ft width 148 ft
Elevation 10 ft Threshold ft Heading 39
Runway 22 Length 4780 ft Width 148 ft
Elevation 15 ft Threshold ft Heading 219
Airport Frequencies
Type TWR Name SAN SEBAST Frequency 119.85 MHZ
Airport Navaids
Type NDB-DME Name San Sebastian Frequency 328 KHZ
Type VOR-DME Name San Sebastian Frequency 117900 KHZ
Airport Weather Information & NOTAM
ADDS - METARS form results

(1652 UTC 27 June 2022)
Data provider http://aviationweather.gov/metar/data/
 
METAR text: LESO 271630Z VRB01KT 9999 SCT035 OVC055 19/14 Q1023
Conditions at: LESO (SAN SEBASTIAN/FU, ES) observed 1630 UTC 27 June 2022
Temperature: 19.0°C (66°F)
Dewpoint: 14.0°C (57°F) [RH = 73%]
Pressure (altimeter): 30.21 inches Hg (1023.0 mb)
Winds: variable direction winds at 1 MPH (1 knots; 0.5 m/s)
Visibility: 6 or more miles (10+ km)
Ceiling: 5500 feet AGL
Clouds: scattered clouds at 3500 feet AGL
overcast cloud deck at 5500 feet AGL
Weather: no significant weather observed at this time

METAR text: LESO 271600Z 00000KT 9999 SCT035 OVC055 19/14 Q1023
Conditions at: LESO (SAN SEBASTIAN/FU, ES) observed 1600 UTC 27 June 2022
Temperature: 19.0°C (66°F)
Dewpoint: 14.0°C (57°F) [RH = 73%]
Pressure (altimeter): 30.21 inches Hg (1023.0 mb)
Winds: calm
Visibility: 6 or more miles (10+ km)
Ceiling: 5500 feet AGL
Clouds: scattered clouds at 3500 feet AGL
overcast cloud deck at 5500 feet AGL
Weather: no significant weather observed at this time

Forecast for: LESO (SAN SEBASTIAN/FU, ES)
Text: TAF LESO 271100Z 2712/2812 36007KT 9999 FEW015 BKN030 TX22/2812Z TN14/2805Z
Forecast period: 1200 UTC 27 June 2022 to 1200 UTC 28 June 2022
Forecast type: FROM: standard forecast or significant change
Winds: from the N (360 degrees) at 8 MPH (7 knots; 3.6 m/s)
Visibility: 6 or more miles (10+ km)
Ceiling: 3000 feet AGL
Clouds: few clouds at 1500 feet AGL
broken clouds at 3000 feet AGL
Weather: no significant weather forecast for this period
Text: PROB30
Forecast period: 1200 to 1400 UTC 27 June 2022
Forecast type: TEMPORARY: The following changes expected for less than half the time period
Visibility: 1.86 miles (2.99 km)
Ceiling: unknown
Clouds: missing
Weather: RA  (moderate rain)